Overview Statistics Trail Chart Weather Telemetry Raw packets
 

This is the latest recevied weather packets stored in our database for station/object OE6ATD-13. If no packets are shown the sender has not sent any weather packets the latest 10 day(s).

<< 46 47 48 49 50 51 52 >>
Time Temp. Humidity Pressure Rain* Wind** Luminosity Snow
1787990428 23.33° C 53% 1016.9 hPa 0 mm - 176 W/m² -
1787989817 22.78° C 55% 1016.7 hPa 0 mm - 233 W/m² -
1787989216 22.78° C 57% 1016.5 hPa 0 mm - 210 W/m² -
1787988628 22.22° C 61% 1016.6 hPa 0 mm - 197 W/m² -
1787988023 22.22° C 62% 1016.7 hPa 0 mm - 112 W/m² -
1787987419 22.22° C 62% 1016.4 hPa 0 mm - 115 W/m² -
1787986830 21.67° C 62% 1016.3 hPa 0 mm - 98 W/m² -
1787986226 21.67° C 62% 1016.2 hPa 0 mm - 71 W/m² -
1787985621 21.67° C 63% 1016.1 hPa 0 mm - 66 W/m² -
1787985018 21.11° C 65% 1016.1 hPa 0 mm - 61 W/m² -
1787984428 21.11° C 64% 1016 hPa 0 mm - 47 W/m² -
1787983826 21.11° C 63% 1015.8 hPa 0 mm - 50 W/m² -
1787983222 20.56° C 63% 1015.7 hPa 0 mm - 45 W/m² -
1787982617 20.56° C 64% 1015.6 hPa 0 mm - 42 W/m² -
1787982028 20.56° C 65% 1015.5 hPa 0 mm - 33 W/m² -
1787981424 20.56° C 64% 1015.4 hPa 0 mm - 27 W/m² -
1787980820 20.56° C 63% 1015.3 hPa 0 mm - 45 W/m² -
1787980216 20.56° C 63% 1015.4 hPa 0 mm - 30 W/m² -
1787979627 20.56° C 63% 1015.4 hPa 0 mm - 24 W/m² -
1787979023 20.56° C 62% 1015.4 hPa 0 mm - 15 W/m² -
1787978419 21.11° C 61% 1015.4 hPa 0 mm - 17 W/m² -
1787977829 21.11° C 60% 1015.3 hPa 0 mm - 8 W/m² -
1787977226 21.11° C 55% 1015.4 hPa 0 mm - 1 W/m² -
1787976621 21.67° C 52% 1015.2 hPa 0 mm - 0 W/m² -
1787976017 21.67° C 52% 1015.1 hPa 0 mm - 0 W/m² -

* Rain latest hour (hover to see other rain measurements)
** Current wind speed in m/s (hover to see current wind gust speed)